sensor_id;sensor_type;location;lat;lon;timestamp;P1;durP1;ratioP1;P2;durP2;ratioP2
73452;SDS011;61687;56.232;43.854;2022-08-25T00:01:21;17.27;;;10.82;;
73452;SDS011;61687;56.232;43.854;2022-08-25T00:03:49;17.42;;;11.68;;
73452;SDS011;61687;56.232;43.854;2022-08-25T00:06:16;21.23;;;11.40;;
73452;SDS011;61687;56.232;43.854;2022-08-25T00:08:43;20.63;;;11.43;;
73452;SDS011;61687;56.232;43.854;2022-08-25T00:11:11;17.23;;;9.98;;
73452;SDS011;61687;56.232;43.854;2022-08-25T00:13:42;20.75;;;11.13;;
73452;SDS011;61687;56.232;43.854;2022-08-25T00:16:10;15.20;;;10.10;;
73452;SDS011;61687;56.232;43.854;2022-08-25T00:18:38;16.20;;;10.13;;
73452;SDS011;61687;56.232;43.854;2022-08-25T00:21:05;17.48;;;11.10;;
73452;SDS011;61687;56.232;43.854;2022-08-25T00:23:32;18.30;;;10.77;;
73452;SDS011;61687;56.232;43.854;2022-08-25T00:26:00;17.77;;;10.90;;
73452;SDS011;61687;56.232;43.854;2022-08-25T00:28:26;18.97;;;10.90;;
73452;SDS011;61687;56.232;43.854;2022-08-25T00:30:54;18.33;;;11.05;;
73452;SDS011;61687;56.232;43.854;2022-08-25T00:33:20;19.10;;;11.50;;
73452;SDS011;61687;56.232;43.854;2022-08-25T00:35:46;16.52;;;10.40;;
73452;SDS011;61687;56.232;43.854;2022-08-25T00:38:12;19.03;;;11.37;;
73452;SDS011;61687;56.232;43.854;2022-08-25T00:40:38;16.00;;;10.90;;
73452;SDS011;61687;56.232;43.854;2022-08-25T00:43:06;22.00;;;11.43;;
73452;SDS011;61687;56.232;43.854;2022-08-25T00:45:33;17.05;;;10.55;;
73452;SDS011;61687;56.232;43.854;2022-08-25T00:48:00;17.70;;;11.05;;
73452;SDS011;61687;56.232;43.854;2022-08-25T00:50:27;21.20;;;11.43;;
73452;SDS011;61687;56.232;43.854;2022-08-25T00:52:55;16.90;;;10.80;;
73452;SDS011;61687;56.232;43.854;2022-08-25T00:55:33;18.80;;;11.00;;
73452;SDS011;61687;56.232;43.854;2022-08-25T00:58:04;19.75;;;11.50;;
73452;SDS011;61687;56.232;43.854;2022-08-25T01:00:43;15.98;;;10.70;;
73452;SDS011;61687;56.232;43.854;2022-08-25T01:03:11;17.60;;;10.47;;
73452;SDS011;61687;56.232;43.854;2022-08-25T01:05:37;17.75;;;10.65;;
73452;SDS011;61687;56.232;43.854;2022-08-25T01:08:05;18.13;;;11.00;;
73452;SDS011;61687;56.232;43.854;2022-08-25T01:10:37;17.15;;;10.48;;
73452;SDS011;61687;56.232;43.854;2022-08-25T01:15:54;19.17;;;11.33;;
73452;SDS011;61687;56.232;43.854;2022-08-25T01:18:21;15.15;;;10.00;;
73452;SDS011;61687;56.232;43.854;2022-08-25T01:20:48;17.73;;;10.90;;
73452;SDS011;61687;56.232;43.854;2022-08-25T01:23:16;18.77;;;10.98;;
73452;SDS011;61687;56.232;43.854;2022-08-25T01:25:49;19.30;;;11.35;;
73452;SDS011;61687;56.232;43.854;2022-08-25T01:28:21;16.00;;;10.27;;
73452;SDS011;61687;56.232;43.854;2022-08-25T01:30:47;15.25;;;10.15;;
73452;SDS011;61687;56.232;43.854;2022-08-25T01:33:14;18.35;;;11.10;;
73452;SDS011;61687;56.232;43.854;2022-08-25T01:35:41;17.27;;;11.18;;
73452;SDS011;61687;56.232;43.854;2022-08-25T01:38:08;20.05;;;10.95;;
73452;SDS011;61687;56.232;43.854;2022-08-25T01:40:35;17.83;;;10.57;;
73452;SDS011;61687;56.232;43.854;2022-08-25T01:45:32;18.80;;;12.27;;
73452;SDS011;61687;56.232;43.854;2022-08-25T01:47:59;18.35;;;11.10;;
73452;SDS011;61687;56.232;43.854;2022-08-25T01:50:25;19.80;;;11.15;;
73452;SDS011;61687;56.232;43.854;2022-08-25T01:52:58;18.37;;;10.70;;
73452;SDS011;61687;56.232;43.854;2022-08-25T01:55:28;15.75;;;10.63;;
73452;SDS011;61687;56.232;43.854;2022-08-25T01:57:56;17.58;;;10.55;;
73452;SDS011;61687;56.232;43.854;2022-08-25T02:00:23;18.98;;;11.30;;
73452;SDS011;61687;56.232;43.854;2022-08-25T02:02:49;18.13;;;11.30;;
73452;SDS011;61687;56.232;43.854;2022-08-25T02:05:15;20.40;;;11.03;;
73452;SDS011;61687;56.232;43.854;2022-08-25T02:07:42;17.90;;;11.45;;
73452;SDS011;61687;56.232;43.854;2022-08-25T02:10:09;18.80;;;12.13;;
73452;SDS011;61687;56.232;43.854;2022-08-25T02:12:37;16.75;;;11.90;;
73452;SDS011;61687;56.232;43.854;2022-08-25T02:15:04;20.50;;;12.67;;
73452;SDS011;61687;56.232;43.854;2022-08-25T02:17:32;17.08;;;10.77;;
73452;SDS011;61687;56.232;43.854;2022-08-25T02:19:59;20.35;;;12.38;;
73452;SDS011;61687;56.232;43.854;2022-08-25T02:22:25;18.73;;;11.30;;
73452;SDS011;61687;56.232;43.854;2022-08-25T02:24:53;18.80;;;11.75;;
73452;SDS011;61687;56.232;43.854;2022-08-25T02:27:18;17.90;;;11.13;;
73452;SDS011;61687;56.232;43.854;2022-08-25T02:29:44;17.58;;;11.93;;
73452;SDS011;61687;56.232;43.854;2022-08-25T02:32:11;16.92;;;11.07;;
73452;SDS011;61687;56.232;43.854;2022-08-25T02:34:37;17.80;;;10.67;;
73452;SDS011;61687;56.232;43.854;2022-08-25T02:37:05;19.10;;;11.68;;
73452;SDS011;61687;56.232;43.854;2022-08-25T02:39:32;21.98;;;12.05;;
73452;SDS011;61687;56.232;43.854;2022-08-25T02:41:58;20.00;;;10.98;;
73452;SDS011;61687;56.232;43.854;2022-08-25T02:44:24;20.37;;;11.80;;
73452;SDS011;61687;56.232;43.854;2022-08-25T02:46:50;20.15;;;11.85;;
73452;SDS011;61687;56.232;43.854;2022-08-25T02:49:16;19.02;;;11.35;;
73452;SDS011;61687;56.232;43.854;2022-08-25T02:51:43;17.98;;;12.40;;
73452;SDS011;61687;56.232;43.854;2022-08-25T02:54:08;18.23;;;11.70;;
73452;SDS011;61687;56.232;43.854;2022-08-25T02:56:34;21.38;;;12.25;;
73452;SDS011;61687;56.232;43.854;2022-08-25T02:59:00;22.10;;;12.95;;
73452;SDS011;61687;56.232;43.854;2022-08-25T03:01:27;21.38;;;12.88;;
73452;SDS011;61687;56.232;43.854;2022-08-25T03:03:54;21.63;;;12.80;;
73452;SDS011;61687;56.232;43.854;2022-08-25T03:06:21;22.13;;;13.00;;
73452;SDS011;61687;56.232;43.854;2022-08-25T03:08:48;20.27;;;12.88;;
73452;SDS011;61687;56.232;43.854;2022-08-25T03:11:15;24.27;;;14.20;;
73452;SDS011;61687;56.232;43.854;2022-08-25T03:13:42;22.20;;;12.52;;
73452;SDS011;61687;56.232;43.854;2022-08-25T03:16:08;20.43;;;13.20;;
73452;SDS011;61687;56.232;43.854;2022-08-25T03:18:35;19.95;;;11.93;;
73452;SDS011;61687;56.232;43.854;2022-08-25T03:21:02;23.35;;;13.07;;
73452;SDS011;61687;56.232;43.854;2022-08-25T03:23:30;19.67;;;12.73;;
73452;SDS011;61687;56.232;43.854;2022-08-25T03:25:56;18.90;;;13.05;;
73452;SDS011;61687;56.232;43.854;2022-08-25T03:28:40;20.27;;;12.33;;
73452;SDS011;61687;56.232;43.854;2022-08-25T03:31:06;21.13;;;11.63;;
73452;SDS011;61687;56.232;43.854;2022-08-25T03:33:34;19.25;;;12.30;;
73452;SDS011;61687;56.232;43.854;2022-08-25T03:36:00;21.27;;;12.70;;
73452;SDS011;61687;56.232;43.854;2022-08-25T03:38:26;25.05;;;16.63;;
73452;SDS011;61687;56.232;43.854;2022-08-25T03:40:52;24.17;;;13.33;;
73452;SDS011;61687;56.232;43.854;2022-08-25T03:43:18;22.88;;;13.70;;
73452;SDS011;61687;56.232;43.854;2022-08-25T03:45:45;23.63;;;14.02;;
73452;SDS011;61687;56.232;43.854;2022-08-25T03:48:12;22.10;;;11.82;;
73452;SDS011;61687;56.232;43.854;2022-08-25T03:50:43;21.48;;;12.73;;
73452;SDS011;61687;56.232;43.854;2022-08-25T03:53:10;24.20;;;12.10;;
73452;SDS011;61687;56.232;43.854;2022-08-25T03:55:36;19.88;;;11.10;;
73452;SDS011;61687;56.232;43.854;2022-08-25T03:58:02;23.10;;;11.02;;
73452;SDS011;61687;56.232;43.854;2022-08-25T04:00:28;17.70;;;10.23;;
73452;SDS011;61687;56.232;43.854;2022-08-25T04:02:54;17.70;;;9.45;;
73452;SDS011;61687;56.232;43.854;2022-08-25T04:05:20;20.05;;;9.20;;
73452;SDS011;61687;56.232;43.854;2022-08-25T04:07:46;19.30;;;9.60;;
73452;SDS011;61687;56.232;43.854;2022-08-25T04:10:12;17.47;;;9.20;;
73452;SDS011;61687;56.232;43.854;2022-08-25T04:12:38;15.30;;;8.88;;
73452;SDS011;61687;56.232;43.854;2022-08-25T04:15:04;17.63;;;9.18;;
73452;SDS011;61687;56.232;43.854;2022-08-25T04:17:30;15.82;;;8.43;;
73452;SDS011;61687;56.232;43.854;2022-08-25T04:19:57;16.57;;;8.03;;
73452;SDS011;61687;56.232;43.854;2022-08-25T04:22:23;14.15;;;8.02;;
73452;SDS011;61687;56.232;43.854;2022-08-25T04:24:48;19.40;;;9.10;;
73452;SDS011;61687;56.232;43.854;2022-08-25T04:27:14;31.48;;;9.27;;
73452;SDS011;61687;56.232;43.854;2022-08-25T04:29:41;15.67;;;8.70;;
73452;SDS011;61687;56.232;43.854;2022-08-25T04:32:07;19.80;;;8.88;;
73452;SDS011;61687;56.232;43.854;2022-08-25T04:34:33;14.75;;;9.63;;
73452;SDS011;61687;56.232;43.854;2022-08-25T04:37:00;19.40;;;10.10;;
73452;SDS011;61687;56.232;43.854;2022-08-25T04:39:28;19.65;;;9.93;;
73452;SDS011;61687;56.232;43.854;2022-08-25T04:41:54;24.23;;;10.57;;
73452;SDS011;61687;56.232;43.854;2022-08-25T04:44:20;29.70;;;10.63;;
73452;SDS011;61687;56.232;43.854;2022-08-25T04:46:46;21.87;;;9.97;;
73452;SDS011;61687;56.232;43.854;2022-08-25T04:49:13;23.05;;;10.32;;
73452;SDS011;61687;56.232;43.854;2022-08-25T04:51:40;22.45;;;9.95;;
73452;SDS011;61687;56.232;43.854;2022-08-25T04:54:07;16.73;;;9.23;;
73452;SDS011;61687;56.232;43.854;2022-08-25T04:56:37;19.85;;;11.05;;
73452;SDS011;61687;56.232;43.854;2022-08-25T04:59:11;18.47;;;9.17;;
73452;SDS011;61687;56.232;43.854;2022-08-25T05:01:39;13.38;;;8.35;;
73452;SDS011;61687;56.232;43.854;2022-08-25T05:04:07;18.45;;;9.65;;
73452;SDS011;61687;56.232;43.854;2022-08-25T05:06:35;17.80;;;9.32;;
73452;SDS011;61687;56.232;43.854;2022-08-25T05:09:02;20.77;;;9.13;;
73452;SDS011;61687;56.232;43.854;2022-08-25T05:11:29;27.43;;;9.37;;
73452;SDS011;61687;56.232;43.854;2022-08-25T05:13:56;20.00;;;9.57;;
73452;SDS011;61687;56.232;43.854;2022-08-25T05:16:25;24.80;;;9.60;;
73452;SDS011;61687;56.232;43.854;2022-08-25T05:18:52;16.25;;;9.05;;
73452;SDS011;61687;56.232;43.854;2022-08-25T05:21:20;20.98;;;9.05;;
73452;SDS011;61687;56.232;43.854;2022-08-25T05:23:48;21.33;;;9.70;;
73452;SDS011;61687;56.232;43.854;2022-08-25T05:26:23;18.08;;;9.60;;
73452;SDS011;61687;56.232;43.854;2022-08-25T05:28:51;18.70;;;11.13;;
73452;SDS011;61687;56.232;43.854;2022-08-25T05:31:19;15.52;;;10.32;;
73452;SDS011;61687;56.232;43.854;2022-08-25T05:33:46;16.77;;;9.52;;
73452;SDS011;61687;56.232;43.854;2022-08-25T05:36:13;18.40;;;10.20;;
73452;SDS011;61687;56.232;43.854;2022-08-25T05:38:39;16.80;;;10.02;;
73452;SDS011;61687;56.232;43.854;2022-08-25T05:41:07;20.58;;;10.45;;
73452;SDS011;61687;56.232;43.854;2022-08-25T05:43:38;20.10;;;9.88;;
73452;SDS011;61687;56.232;43.854;2022-08-25T05:46:05;15.70;;;9.57;;
73452;SDS011;61687;56.232;43.854;2022-08-25T05:48:32;14.60;;;9.13;;
73452;SDS011;61687;56.232;43.854;2022-08-25T05:50:59;17.50;;;9.88;;
73452;SDS011;61687;56.232;43.854;2022-08-25T05:53:31;18.38;;;9.50;;
73452;SDS011;61687;56.232;43.854;2022-08-25T05:55:58;26.05;;;9.40;;
73452;SDS011;61687;56.232;43.854;2022-08-25T05:58:25;22.50;;;9.48;;
73452;SDS011;61687;56.232;43.854;2022-08-25T06:00:52;19.47;;;9.70;;
73452;SDS011;61687;56.232;43.854;2022-08-25T06:03:19;17.00;;;9.25;;
73452;SDS011;61687;56.232;43.854;2022-08-25T06:05:45;16.88;;;9.13;;
73452;SDS011;61687;56.232;43.854;2022-08-25T06:08:11;16.95;;;9.75;;
73452;SDS011;61687;56.232;43.854;2022-08-25T06:10:38;16.23;;;10.30;;
73452;SDS011;61687;56.232;43.854;2022-08-25T06:13:04;18.33;;;9.27;;
73452;SDS011;61687;56.232;43.854;2022-08-25T06:15:30;16.00;;;8.65;;
73452;SDS011;61687;56.232;43.854;2022-08-25T06:17:58;18.15;;;8.35;;
73452;SDS011;61687;56.232;43.854;2022-08-25T06:20:26;18.77;;;9.30;;
73452;SDS011;61687;56.232;43.854;2022-08-25T06:22:53;19.90;;;9.70;;
73452;SDS011;61687;56.232;43.854;2022-08-25T06:25:21;19.80;;;8.90;;
73452;SDS011;61687;56.232;43.854;2022-08-25T06:27:49;15.60;;;8.63;;
73452;SDS011;61687;56.232;43.854;2022-08-25T06:30:17;17.83;;;9.30;;
73452;SDS011;61687;56.232;43.854;2022-08-25T06:32:45;16.15;;;8.77;;
73452;SDS011;61687;56.232;43.854;2022-08-25T06:35:13;15.83;;;8.57;;
73452;SDS011;61687;56.232;43.854;2022-08-25T06:37:41;16.48;;;8.25;;
73452;SDS011;61687;56.232;43.854;2022-08-25T06:40:07;13.73;;;8.25;;
73452;SDS011;61687;56.232;43.854;2022-08-25T06:42:35;17.10;;;7.90;;
73452;SDS011;61687;56.232;43.854;2022-08-25T06:45:02;15.70;;;7.80;;
73452;SDS011;61687;56.232;43.854;2022-08-25T06:47:29;21.83;;;8.83;;
73452;SDS011;61687;56.232;43.854;2022-08-25T06:49:55;12.75;;;7.47;;
73452;SDS011;61687;56.232;43.854;2022-08-25T06:52:21;13.88;;;7.20;;
73452;SDS011;61687;56.232;43.854;2022-08-25T06:54:47;13.95;;;7.00;;
73452;SDS011;61687;56.232;43.854;2022-08-25T06:57:13;12.53;;;7.33;;
73452;SDS011;61687;56.232;43.854;2022-08-25T06:59:39;15.98;;;7.75;;
73452;SDS011;61687;56.232;43.854;2022-08-25T07:02:05;11.48;;;7.40;;
73452;SDS011;61687;56.232;43.854;2022-08-25T07:04:32;12.95;;;7.45;;
73452;SDS011;61687;56.232;43.854;2022-08-25T07:06:59;15.73;;;7.30;;
73452;SDS011;61687;56.232;43.854;2022-08-25T07:09:26;10.98;;;7.28;;
73452;SDS011;61687;56.232;43.854;2022-08-25T07:11:51;17.27;;;7.63;;
73452;SDS011;61687;56.232;43.854;2022-08-25T07:14:18;13.65;;;7.47;;
73452;SDS011;61687;56.232;43.854;2022-08-25T07:16:44;13.27;;;7.23;;
73452;SDS011;61687;56.232;43.854;2022-08-25T07:19:11;15.80;;;7.45;;
73452;SDS011;61687;56.232;43.854;2022-08-25T07:21:38;16.45;;;7.47;;
73452;SDS011;61687;56.232;43.854;2022-08-25T07:24:09;17.08;;;7.20;;
73452;SDS011;61687;56.232;43.854;2022-08-25T07:26:37;13.48;;;6.78;;
73452;SDS011;61687;56.232;43.854;2022-08-25T07:29:12;15.10;;;7.43;;
73452;SDS011;61687;56.232;43.854;2022-08-25T07:31:40;16.77;;;6.65;;
73452;SDS011;61687;56.232;43.854;2022-08-25T07:34:06;11.25;;;7.07;;
73452;SDS011;61687;56.232;43.854;2022-08-25T07:36:51;13.07;;;6.50;;
73452;SDS011;61687;56.232;43.854;2022-08-25T07:39:18;13.90;;;7.03;;
73452;SDS011;61687;56.232;43.854;2022-08-25T07:41:43;19.13;;;7.70;;
73452;SDS011;61687;56.232;43.854;2022-08-25T07:44:10;15.05;;;7.30;;
73452;SDS011;61687;56.232;43.854;2022-08-25T07:46:37;14.65;;;7.03;;
73452;SDS011;61687;56.232;43.854;2022-08-25T07:49:03;12.07;;;7.03;;
73452;SDS011;61687;56.232;43.854;2022-08-25T07:51:29;14.97;;;6.80;;
73452;SDS011;61687;56.232;43.854;2022-08-25T07:53:55;12.73;;;6.68;;
73452;SDS011;61687;56.232;43.854;2022-08-25T07:56:21;13.40;;;6.63;;
73452;SDS011;61687;56.232;43.854;2022-08-25T07:58:47;16.27;;;7.13;;
73452;SDS011;61687;56.232;43.854;2022-08-25T08:01:15;13.88;;;6.97;;
73452;SDS011;61687;56.232;43.854;2022-08-25T08:03:46;13.43;;;7.07;;
73452;SDS011;61687;56.232;43.854;2022-08-25T08:06:13;13.65;;;6.85;;
73452;SDS011;61687;56.232;43.854;2022-08-25T08:08:42;13.88;;;7.00;;
73452;SDS011;61687;56.232;43.854;2022-08-25T08:11:14;11.23;;;6.57;;
73452;SDS011;61687;56.232;43.854;2022-08-25T08:13:45;15.48;;;7.47;;
73452;SDS011;61687;56.232;43.854;2022-08-25T08:16:12;11.83;;;6.30;;
73452;SDS011;61687;56.232;43.854;2022-08-25T08:18:40;14.77;;;7.13;;
73452;SDS011;61687;56.232;43.854;2022-08-25T08:21:17;13.82;;;6.80;;
73452;SDS011;61687;56.232;43.854;2022-08-25T08:23:46;11.00;;;6.47;;
73452;SDS011;61687;56.232;43.854;2022-08-25T08:26:13;15.82;;;6.82;;
73452;SDS011;61687;56.232;43.854;2022-08-25T08:28:39;14.67;;;6.50;;
73452;SDS011;61687;56.232;43.854;2022-08-25T08:31:05;14.00;;;7.55;;
73452;SDS011;61687;56.232;43.854;2022-08-25T08:33:31;13.18;;;7.38;;
73452;SDS011;61687;56.232;43.854;2022-08-25T08:36:06;17.33;;;7.00;;
73452;SDS011;61687;56.232;43.854;2022-08-25T08:38:34;17.27;;;7.50;;
73452;SDS011;61687;56.232;43.854;2022-08-25T08:47:08;13.88;;;7.63;;
73452;SDS011;61687;56.232;43.854;2022-08-25T08:52:39;10.65;;;7.07;;
73452;SDS011;61687;56.232;43.854;2022-08-25T08:55:44;10.43;;;6.53;;
73452;SDS011;61687;56.232;43.854;2022-08-25T08:58:19;14.23;;;7.22;;
73452;SDS011;61687;56.232;43.854;2022-08-25T09:00:48;14.25;;;7.00;;
73452;SDS011;61687;56.232;43.854;2022-08-25T09:03:25;18.80;;;8.35;;
73452;SDS011;61687;56.232;43.854;2022-08-25T09:05:52;12.30;;;7.43;;
73452;SDS011;61687;56.232;43.854;2022-08-25T09:08:20;19.87;;;7.27;;
73452;SDS011;61687;56.232;43.854;2022-08-25T09:10:57;13.70;;;6.80;;
73452;SDS011;61687;56.232;43.854;2022-08-25T09:16:42;11.80;;;6.63;;
73452;SDS011;61687;56.232;43.854;2022-08-25T09:21:51;11.67;;;6.47;;
73452;SDS011;61687;56.232;43.854;2022-08-25T09:24:45;13.27;;;7.13;;
73452;SDS011;61687;56.232;43.854;2022-08-25T09:27:22;11.70;;;6.80;;
73452;SDS011;61687;56.232;43.854;2022-08-25T09:30:05;10.00;;;6.70;;
73452;SDS011;61687;56.232;43.854;2022-08-25T09:32:40;13.37;;;8.03;;
73452;SDS011;61687;56.232;43.854;2022-08-25T09:35:28;12.30;;;6.00;;
73452;SDS011;61687;56.232;43.854;2022-08-25T09:37:57;10.82;;;5.85;;
73452;SDS011;61687;56.232;43.854;2022-08-25T09:40:28;11.68;;;6.07;;
73452;SDS011;61687;56.232;43.854;2022-08-25T09:42:58;11.82;;;6.55;;
73452;SDS011;61687;56.232;43.854;2022-08-25T09:45:30;9.70;;;5.80;;
73452;SDS011;61687;56.232;43.854;2022-08-25T09:48:01;8.55;;;6.00;;
73452;SDS011;61687;56.232;43.854;2022-08-25T09:50:47;12.52;;;6.43;;
73452;SDS011;61687;56.232;43.854;2022-08-25T09:53:13;11.23;;;6.10;;
73452;SDS011;61687;56.232;43.854;2022-08-25T09:55:45;10.15;;;6.13;;
73452;SDS011;61687;56.232;43.854;2022-08-25T09:58:19;15.23;;;6.47;;
73452;SDS011;61687;56.232;43.854;2022-08-25T10:01:02;9.27;;;5.60;;
73452;SDS011;61687;56.232;43.854;2022-08-25T10:03:37;12.10;;;5.88;;
73452;SDS011;61687;56.232;43.854;2022-08-25T10:06:18;10.05;;;5.72;;
73452;SDS011;61687;56.232;43.854;2022-08-25T10:11:12;14.80;;;6.03;;
73452;SDS011;61687;56.232;43.854;2022-08-25T10:13:59;11.32;;;6.00;;
73452;SDS011;61687;56.232;43.854;2022-08-25T10:16:47;10.35;;;6.53;;
73452;SDS011;61687;56.232;43.854;2022-08-25T10:24:50;12.10;;;7.18;;
73452;SDS011;61687;56.232;43.854;2022-08-25T10:32:35;13.85;;;8.82;;
73452;SDS011;61687;56.232;43.854;2022-08-25T10:40:58;14.65;;;9.20;;
73452;SDS011;61687;56.232;43.854;2022-08-25T10:53:01;12.55;;;8.70;;
73452;SDS011;61687;56.232;43.854;2022-08-25T11:00:42;14.85;;;9.20;;
73452;SDS011;61687;56.232;43.854;2022-08-25T11:05:58;14.35;;;8.27;;
73452;SDS011;61687;56.232;43.854;2022-08-25T11:08:38;11.73;;;8.35;;
73452;SDS011;61687;56.232;43.854;2022-08-25T11:11:19;16.02;;;9.00;;
73452;SDS011;61687;56.232;43.854;2022-08-25T11:14:00;14.25;;;8.68;;
73452;SDS011;61687;56.232;43.854;2022-08-25T11:16:42;16.17;;;9.20;;
73452;SDS011;61687;56.232;43.854;2022-08-25T11:24:50;15.18;;;9.02;;
73452;SDS011;61687;56.232;43.854;2022-08-25T11:27:32;13.23;;;8.93;;
73452;SDS011;61687;56.232;43.854;2022-08-25T11:30:05;15.67;;;8.27;;
73452;SDS011;61687;56.232;43.854;2022-08-25T11:32:35;45.05;;;10.10;;
73452;SDS011;61687;56.232;43.854;2022-08-25T11:35:03;13.43;;;9.02;;
73452;SDS011;61687;56.232;43.854;2022-08-25T11:37:32;12.13;;;8.95;;
73452;SDS011;61687;56.232;43.854;2022-08-25T11:51:02;14.43;;;9.02;;
73452;SDS011;61687;56.232;43.854;2022-08-25T11:53:32;17.48;;;9.13;;
73452;SDS011;61687;56.232;43.854;2022-08-25T11:56:01;23.97;;;9.20;;
73452;SDS011;61687;56.232;43.854;2022-08-25T11:58:48;19.48;;;9.20;;
73452;SDS011;61687;56.232;43.854;2022-08-25T12:09:32;12.23;;;8.20;;
73452;SDS011;61687;56.232;43.854;2022-08-25T12:12:26;13.23;;;8.20;;
73452;SDS011;61687;56.232;43.854;2022-08-25T12:15:22;12.77;;;8.98;;
73452;SDS011;61687;56.232;43.854;2022-08-25T12:18:14;14.15;;;8.98;;
73452;SDS011;61687;56.232;43.854;2022-08-25T12:36:57;11.40;;;9.13;;
73452;SDS011;61687;56.232;43.854;2022-08-25T12:39:30;13.57;;;8.82;;
73452;SDS011;61687;56.232;43.854;2022-08-25T12:42:02;17.73;;;9.25;;
73452;SDS011;61687;56.232;43.854;2022-08-25T12:44:35;13.13;;;9.60;;
73452;SDS011;61687;56.232;43.854;2022-08-25T12:47:05;15.80;;;9.93;;
73452;SDS011;61687;56.232;43.854;2022-08-25T12:49:51;22.37;;;9.63;;
73452;SDS011;61687;56.232;43.854;2022-08-25T12:52:22;16.98;;;9.98;;
73452;SDS011;61687;56.232;43.854;2022-08-25T12:54:57;16.17;;;8.98;;
73452;SDS011;61687;56.232;43.854;2022-08-25T12:57:31;13.10;;;8.98;;
73452;SDS011;61687;56.232;43.854;2022-08-25T13:11:02;15.95;;;8.95;;
73452;SDS011;61687;56.232;43.854;2022-08-25T13:16:50;14.00;;;9.30;;
73452;SDS011;61687;56.232;43.854;2022-08-25T13:19:19;14.13;;;10.13;;
73452;SDS011;61687;56.232;43.854;2022-08-25T13:21:46;18.38;;;9.45;;
73452;SDS011;61687;56.232;43.854;2022-08-25T13:24:31;15.38;;;10.18;;
73452;SDS011;61687;56.232;43.854;2022-08-25T13:27:00;21.38;;;10.40;;
73452;SDS011;61687;56.232;43.854;2022-08-25T13:29:30;13.57;;;8.53;;
73452;SDS011;61687;56.232;43.854;2022-08-25T13:32:05;12.45;;;8.80;;
73452;SDS011;61687;56.232;43.854;2022-08-25T13:34:37;17.92;;;9.82;;
73452;SDS011;61687;56.232;43.854;2022-08-25T13:37:10;16.05;;;9.23;;
73452;SDS011;61687;56.232;43.854;2022-08-25T13:42:43;31.87;;;9.50;;
73452;SDS011;61687;56.232;43.854;2022-08-25T13:45:13;20.33;;;9.73;;
73452;SDS011;61687;56.232;43.854;2022-08-25T13:47:42;15.55;;;9.63;;
73452;SDS011;61687;56.232;43.854;2022-08-25T13:50:14;19.52;;;10.25;;
73452;SDS011;61687;56.232;43.854;2022-08-25T13:52:40;14.50;;;9.50;;
73452;SDS011;61687;56.232;43.854;2022-08-25T13:55:08;18.50;;;9.07;;
73452;SDS011;61687;56.232;43.854;2022-08-25T13:57:36;15.77;;;9.80;;
73452;SDS011;61687;56.232;43.854;2022-08-25T14:00:09;17.50;;;9.52;;
73452;SDS011;61687;56.232;43.854;2022-08-25T14:02:44;17.02;;;9.65;;
73452;SDS011;61687;56.232;43.854;2022-08-25T14:05:15;18.27;;;11.25;;
73452;SDS011;61687;56.232;43.854;2022-08-25T14:07:56;20.13;;;11.20;;
73452;SDS011;61687;56.232;43.854;2022-08-25T14:10:30;20.88;;;11.40;;
73452;SDS011;61687;56.232;43.854;2022-08-25T14:13:12;23.90;;;11.65;;
73452;SDS011;61687;56.232;43.854;2022-08-25T14:15:52;22.85;;;11.40;;
73452;SDS011;61687;56.232;43.854;2022-08-25T14:18:29;22.92;;;12.43;;
73452;SDS011;61687;56.232;43.854;2022-08-25T14:20:56;21.97;;;11.70;;
73452;SDS011;61687;56.232;43.854;2022-08-25T14:23:27;41.88;;;12.13;;
73452;SDS011;61687;56.232;43.854;2022-08-25T14:25:55;23.20;;;12.65;;
73452;SDS011;61687;56.232;43.854;2022-08-25T14:28:23;23.02;;;14.00;;
73452;SDS011;61687;56.232;43.854;2022-08-25T14:30:55;33.15;;;13.75;;
73452;SDS011;61687;56.232;43.854;2022-08-25T14:33:45;34.67;;;14.70;;
73452;SDS011;61687;56.232;43.854;2022-08-25T14:36:16;38.58;;;14.48;;
73452;SDS011;61687;56.232;43.854;2022-08-25T14:38:42;55.92;;;15.55;;
73452;SDS011;61687;56.232;43.854;2022-08-25T14:41:07;31.45;;;13.95;;
73452;SDS011;61687;56.232;43.854;2022-08-25T14:43:33;27.90;;;14.83;;
73452;SDS011;61687;56.232;43.854;2022-08-25T14:46:00;33.60;;;14.40;;
73452;SDS011;61687;56.232;43.854;2022-08-25T14:48:33;40.55;;;15.77;;
73452;SDS011;61687;56.232;43.854;2022-08-25T14:51:03;25.90;;;14.80;;
73452;SDS011;61687;56.232;43.854;2022-08-25T14:53:30;28.20;;;15.77;;
73452;SDS011;61687;56.232;43.854;2022-08-25T14:55:56;25.42;;;15.23;;
73452;SDS011;61687;56.232;43.854;2022-08-25T14:58:22;30.13;;;15.63;;
73452;SDS011;61687;56.232;43.854;2022-08-25T15:00:48;30.67;;;15.65;;
73452;SDS011;61687;56.232;43.854;2022-08-25T15:03:17;26.23;;;14.95;;
73452;SDS011;61687;56.232;43.854;2022-08-25T15:05:52;28.93;;;14.73;;
73452;SDS011;61687;56.232;43.854;2022-08-25T15:08:18;21.00;;;12.98;;
73452;SDS011;61687;56.232;43.854;2022-08-25T15:11:02;22.88;;;11.75;;
73452;SDS011;61687;56.232;43.854;2022-08-25T15:13:28;21.83;;;11.48;;
73452;SDS011;61687;56.232;43.854;2022-08-25T15:15:54;20.93;;;11.53;;
73452;SDS011;61687;56.232;43.854;2022-08-25T15:18:20;29.38;;;12.18;;
73452;SDS011;61687;56.232;43.854;2022-08-25T15:20:47;22.75;;;12.25;;
73452;SDS011;61687;56.232;43.854;2022-08-25T15:23:13;21.92;;;12.02;;
73452;SDS011;61687;56.232;43.854;2022-08-25T15:25:40;21.93;;;11.43;;
73452;SDS011;61687;56.232;43.854;2022-08-25T15:28:07;22.80;;;11.25;;
73452;SDS011;61687;56.232;43.854;2022-08-25T15:30:33;18.95;;;10.95;;
73452;SDS011;61687;56.232;43.854;2022-08-25T15:33:00;26.65;;;11.70;;
73452;SDS011;61687;56.232;43.854;2022-08-25T15:35:26;20.33;;;11.10;;
73452;SDS011;61687;56.232;43.854;2022-08-25T15:37:52;21.10;;;10.90;;
73452;SDS011;61687;56.232;43.854;2022-08-25T15:40:19;20.45;;;11.75;;
73452;SDS011;61687;56.232;43.854;2022-08-25T15:42:45;25.30;;;12.43;;
73452;SDS011;61687;56.232;43.854;2022-08-25T15:45:11;21.00;;;12.48;;
73452;SDS011;61687;56.232;43.854;2022-08-25T15:47:37;23.52;;;11.85;;
73452;SDS011;61687;56.232;43.854;2022-08-25T15:50:07;23.20;;;12.27;;
73452;SDS011;61687;56.232;43.854;2022-08-25T15:52:36;19.05;;;11.70;;
73452;SDS011;61687;56.232;43.854;2022-08-25T15:55:02;48.55;;;14.45;;
73452;SDS011;61687;56.232;43.854;2022-08-25T15:57:28;34.50;;;14.20;;
73452;SDS011;61687;56.232;43.854;2022-08-25T15:59:54;28.70;;;13.70;;
73452;SDS011;61687;56.232;43.854;2022-08-25T16:02:20;52.15;;;14.45;;
73452;SDS011;61687;56.232;43.854;2022-08-25T16:04:47;31.20;;;13.30;;
73452;SDS011;61687;56.232;43.854;2022-08-25T16:07:13;47.85;;;13.68;;
73452;SDS011;61687;56.232;43.854;2022-08-25T16:09:39;32.23;;;15.10;;
73452;SDS011;61687;56.232;43.854;2022-08-25T16:12:05;35.20;;;14.45;;
73452;SDS011;61687;56.232;43.854;2022-08-25T16:14:32;29.35;;;14.70;;
73452;SDS011;61687;56.232;43.854;2022-08-25T16:16:58;27.50;;;13.50;;
73452;SDS011;61687;56.232;43.854;2022-08-25T16:19:24;31.20;;;14.27;;
73452;SDS011;61687;56.232;43.854;2022-08-25T16:21:53;27.43;;;13.63;;
73452;SDS011;61687;56.232;43.854;2022-08-25T16:24:19;26.40;;;14.77;;